Time;durP1;ratioP1;P1;durP2;ratioP2;P2;SDS_P1;SDS_P2;PMS_P1;PMS_P2;Temp;Humidity;BMP_temperature;BMP_pressure;BME280_temperature;BME280_humidity;BME280_pressure;Samples;Min_cycle;Max_cycle;Signal;HPM_P1;HPM_P2
2022/05/30 00:00:24;;;;;;;1.60;1.50;;;;;;;12.49;61.79;95876.78;5078190;28;20182;-56
2022/05/30 00:02:50;;;;;;;1.23;1.23;;;;;;;12.44;61.77;95881.78;5074394;28;20260;-54
2022/05/30 00:05:17;;;;;;;2.60;1.50;;;;;;;12.42;62.34;95875.84;5070371;28;20233;-53
2022/05/30 00:07:44;;;;;;;1.40;1.30;;;;;;;12.38;61.38;95878.00;5070475;28;20214;-53
2022/05/30 00:10:11;;;;;;;1.63;1.50;;;;;;;12.38;62.03;95872.69;5064588;28;20207;-55
2022/05/30 00:12:39;;;;;;;1.30;1.30;;;;;;;12.44;62.64;95871.16;5069404;28;20221;-53
2022/05/30 00:15:09;;;;;;;1.80;1.43;;;;;;;12.40;61.51;95880.47;5070671;28;20198;-51
2022/05/30 00:17:37;;;;;;;2.47;1.40;;;;;;;12.39;60.77;95873.53;5074110;28;20227;-50
2022/05/30 00:20:04;;;;;;;2.37;1.60;;;;;;;12.43;62.98;95877.50;5077604;28;20207;-50
2022/05/30 00:22:31;;;;;;;1.60;1.50;;;;;;;12.35;61.31;95872.22;5075592;28;20183;-50
2022/05/30 00:24:59;;;;;;;1.50;1.40;;;;;;;12.34;61.46;95865.25;5078602;28;20203;-49
2022/05/30 00:27:25;;;;;;;2.40;1.53;;;;;;;12.25;61.52;95864.47;5078712;28;20183;-49
2022/05/30 00:29:53;;;;;;;1.50;1.40;;;;;;;12.31;62.51;95870.91;5078534;28;20227;-50
2022/05/30 00:32:20;;;;;;;1.40;1.30;;;;;;;12.30;62.62;95869.25;5078534;28;20231;-49
2022/05/30 00:34:47;;;;;;;1.60;1.47;;;;;;;12.33;62.74;95871.53;5078007;28;20210;-50
2022/05/30 00:37:13;;;;;;;1.70;1.60;;;;;;;12.28;63.44;95876.56;5078839;28;20207;-50
2022/05/30 00:39:40;;;;;;;1.83;1.40;;;;;;;12.24;63.17;95875.25;5078384;28;20218;-49
2022/05/30 00:42:08;;;;;;;1.77;1.37;;;;;;;12.21;62.19;95865.00;5078487;28;20199;-50
2022/05/30 00:44:37;;;;;;;1.97;1.40;;;;;;;12.28;62.50;95858.84;5078409;28;20211;-50
2022/05/30 00:47:05;;;;;;;1.80;1.70;;;;;;;12.19;62.27;95862.50;5065211;28;20289;-50
2022/05/30 00:49:32;;;;;;;1.60;1.50;;;;;;;12.22;62.64;95861.34;5065799;28;20230;-50
2022/05/30 00:52:05;;;;;;;1.77;1.60;;;;;;;12.19;63.10;95866.97;5056537;28;20207;-50
2022/05/30 00:54:35;;;;;;;1.93;1.77;;;;;;;12.13;62.73;95867.66;5053190;28;20297;-50
2022/05/30 00:57:19;;;;;;;1.43;1.30;;;;;;;12.12;62.82;95860.69;5053810;28;20226;-51
2022/05/30 00:59:46;;;;;;;2.10;1.60;;;;;;;12.04;63.17;95855.44;5079064;28;20210;-49
2022/05/30 01:02:14;;;;;;;1.30;1.30;;;;;;;12.08;64.15;95856.75;5074488;28;20225;-50
2022/05/30 01:07:25;;;;;;;2.07;1.60;;;;;;;11.99;64.20;95840.06;5074799;28;20205;-50
2022/05/30 01:09:54;;;;;;;1.77;1.50;;;;;;;11.98;65.51;95839.22;5074845;28;20210;-50
2022/05/30 01:12:36;;;;;;;1.70;1.60;;;;;;;11.91;65.36;95843.56;5077548;28;20189;-54
2022/05/30 01:15:04;;;;;;;1.90;1.70;;;;;;;11.93;64.80;95836.28;5058580;28;20214;-55
2022/05/30 01:17:43;;;;;;;1.83;1.60;;;;;;;11.92;66.33;95837.28;5058573;28;20249;-56
2022/05/30 01:20:17;;;;;;;2.70;1.80;;;;;;;11.84;66.52;95832.00;5057777;28;20290;-55
2022/05/30 01:23:04;;;;;;;2.10;2.00;;;;;;;11.81;65.55;95837.63;5074701;28;20188;-54
2022/05/30 01:25:45;;;;;;;1.50;1.40;;;;;;;11.77;65.07;95835.47;5073516;28;20185;-52
2022/05/30 01:28:26;;;;;;;1.60;1.50;;;;;;;11.78;65.76;95832.69;5078260;28;20183;-54
2022/05/30 01:30:52;;;;;;;1.60;1.50;;;;;;;11.78;65.54;95831.84;5078112;28;20193;-53
2022/05/30 01:33:19;;;;;;;1.60;1.50;;;;;;;11.77;65.65;95825.72;5061687;28;20635;-54
2022/05/30 01:35:46;;;;;;;1.80;1.70;;;;;;;11.71;65.82;95823.75;5074613;28;20191;-56
2022/05/30 01:38:12;;;;;;;1.87;1.53;;;;;;;11.66;67.40;95823.41;5077660;28;20241;-54
2022/05/30 01:40:39;;;;;;;1.33;1.33;;;;;;;11.65;66.83;95819.13;5078194;28;20214;-55
2022/05/30 01:43:05;;;;;;;2.37;1.40;;;;;;;11.62;66.85;95823.94;5081563;28;20210;-53
2022/05/30 01:45:35;;;;;;;2.73;2.00;;;;;;;11.60;69.09;95823.25;5082340;28;20209;-54
2022/05/30 01:48:02;;;;;;;2.53;1.67;;;;;;;11.55;68.95;95825.59;5082083;28;20187;-57
2022/05/30 01:50:29;;;;;;;1.80;1.70;;;;;;;11.40;70.59;95813.06;5081760;28;20222;-55
2022/05/30 01:52:56;;;;;;;2.10;1.90;;;;;;;11.32;70.93;95818.34;5082103;28;20199;-52
2022/05/30 01:55:24;;;;;;;1.60;1.50;;;;;;;11.25;71.42;95801.47;5081221;28;20186;-51
2022/05/30 01:57:50;;;;;;;1.87;1.67;;;;;;;11.29;71.18;95809.91;5074799;28;20212;-54
2022/05/30 02:00:17;;;;;;;1.70;1.60;;;;;;;11.15;72.05;95802.66;5065806;28;20199;-54
2022/05/30 02:02:45;;;;;;;1.90;1.80;;;;;;;11.12;72.59;95805.63;5057372;28;20210;-55
2022/05/30 02:05:14;;;;;;;1.97;1.87;;;;;;;11.01;71.39;95798.03;5057695;28;20214;-55
2022/05/30 02:07:40;;;;;;;3.17;2.03;;;;;;;10.95;72.49;95797.69;5052653;28;20294;-54
2022/05/30 02:10:07;;;;;;;3.47;1.73;;;;;;;10.82;73.27;95802.66;5057310;28;20207;-53
2022/05/30 02:12:34;;;;;;;2.40;1.77;;;;;;;10.71;74.38;95807.44;5055859;28;20654;-54
2022/05/30 02:15:01;;;;;;;1.80;1.70;;;;;;;10.66;75.76;95801.84;5047376;28;20562;-55
2022/05/30 02:17:26;;;;;;;1.70;1.60;;;;;;;10.58;74.07;95804.47;5057319;28;20558;-54
2022/05/30 02:19:55;;;;;;;1.40;1.40;;;;;;;10.49;76.02;95800.97;5059755;28;20297;-53
2022/05/30 02:22:24;;;;;;;2.13;1.73;;;;;;;10.40;75.26;95794.84;5063626;28;20206;-53
2022/05/30 02:24:50;;;;;;;1.80;1.70;;;;;;;10.36;76.26;95801.44;5058862;28;20202;-50
2022/05/30 02:27:21;;;;;;;1.40;1.40;;;;;;;10.28;76.54;95804.06;5051088;28;20209;-50
2022/05/30 02:29:47;;;;;;;2.03;1.87;;;;;;;10.25;77.08;95800.91;5062709;28;20300;-50
2022/05/30 02:32:14;;;;;;;3.33;1.80;;;;;;;10.17;78.25;95801.72;5065902;28;20199;-50
2022/05/30 02:37:26;;;;;;;1.80;1.70;;;;;;;10.11;78.97;95802.34;5057685;28;20218;-50
2022/05/30 02:39:53;;;;;;;2.13;1.97;;;;;;;10.08;79.12;95800.03;5058436;28;20199;-50
2022/05/30 02:42:21;;;;;;;2.87;2.20;;;;;;;10.02;78.22;95798.03;5054131;28;20222;-49
2022/05/30 02:44:48;;;;;;;3.77;2.20;;;;;;;9.95;79.83;95810.22;5052910;28;20555;-50
2022/05/30 02:47:16;;;;;;;2.37;2.23;;;;;;;9.96;79.79;95812.69;5052834;28;20195;-50
2022/05/30 02:49:43;;;;;;;2.50;2.13;;;;;;;9.96;79.37;95803.94;5056793;28;20207;-50
2022/05/30 02:52:09;;;;;;;1.63;1.53;;;;;;;9.90;79.54;95805.41;5057088;28;20210;-50
2022/05/30 02:54:37;;;;;;;1.97;1.87;;;;;;;9.91;78.92;95807.06;5060965;28;20211;-50
2022/05/30 02:57:04;;;;;;;3.00;2.27;;;;;;;9.76;79.92;95807.81;5058739;28;20230;-50
2022/05/30 02:59:31;;;;;;;2.50;2.07;;;;;;;9.78;80.27;95809.31;5060437;28;20234;-49
2022/05/30 03:01:57;;;;;;;2.50;2.30;;;;;;;9.69;80.14;95812.09;5060503;28;20222;-50
2022/05/30 03:04:24;;;;;;;2.40;2.07;;;;;;;9.69;81.88;95812.91;5060570;28;20199;-49
2022/05/30 03:06:50;;;;;;;2.57;2.37;;;;;;;9.74;82.08;95813.25;5060399;28;20649;-50
2022/05/30 03:09:17;;;;;;;2.10;2.00;;;;;;;9.73;82.34;95816.06;5059861;28;20619;-50
2022/05/30 03:11:45;;;;;;;2.50;2.33;;;;;;;9.72;81.40;95819.69;5059375;28;20202;-50
2022/05/30 03:14:12;;;;;;;2.43;2.30;;;;;;;9.68;80.68;95823.63;5059287;28;20241;-50
2022/05/30 03:16:39;;;;;;;3.13;2.13;;;;;;;9.69;81.75;95817.34;5059118;28;20238;-49
2022/05/30 03:19:06;;;;;;;2.20;2.10;;;;;;;9.69;82.03;95812.91;5057245;28;20233;-51
2022/05/30 03:21:32;;;;;;;2.63;2.17;;;;;;;9.75;82.15;95820.19;5056698;28;20204;-51
2022/05/30 03:23:59;;;;;;;2.23;2.13;;;;;;;9.79;82.08;95818.91;5056255;28;20211;-50
2022/05/30 03:26:32;;;;;;;2.53;2.33;;;;;;;9.78;82.14;95816.41;5056294;28;20582;-50
2022/05/30 03:29:03;;;;;;;2.40;2.20;;;;;;;9.71;82.18;95820.66;5056246;28;20245;-50
2022/05/30 03:31:29;;;;;;;2.53;2.33;;;;;;;9.69;83.26;95817.34;5055766;28;20203;-49
2022/05/30 03:33:56;;;;;;;3.00;2.70;;;;;;;9.66;82.62;95823.78;5054849;28;20209;-50
2022/05/30 03:36:25;;;;;;;3.00;2.80;;;;;;;9.65;82.53;95826.56;5055125;28;20575;-50
2022/05/30 03:38:53;;;;;;;3.13;2.50;;;;;;;9.59;81.80;95827.22;5055736;28;20296;-49
2022/05/30 03:41:19;;;;;;;5.30;2.83;;;;;;;9.54;83.02;95822.41;5055816;28;20218;-50
2022/05/30 03:43:46;;;;;;;2.83;2.63;;;;;;;9.52;83.08;95831.47;5056230;28;20212;-50
2022/05/30 03:46:14;;;;;;;3.70;2.40;;;;;;;9.52;83.33;95824.38;5045277;28;20215;-50
2022/05/30 03:48:40;;;;;;;2.70;2.50;;;;;;;9.46;83.68;95836.38;5054580;28;20207;-49
2022/05/30 03:51:12;;;;;;;2.63;2.50;;;;;;;9.47;81.48;95834.56;5056384;28;20215;-49
2022/05/30 03:53:38;;;;;;;2.50;2.40;;;;;;;9.44;83.39;95842.78;5055772;28;20223;-50
2022/05/30 03:56:05;;;;;;;2.93;2.70;;;;;;;9.44;82.92;95837.50;5055758;28;20210;-50
2022/05/30 03:58:31;;;;;;;2.80;2.40;;;;;;;9.43;83.54;95854.31;5056828;28;20231;-50
2022/05/30 04:00:58;;;;;;;3.17;2.87;;;;;;;9.45;83.01;95853.19;5055624;28;20221;-50
2022/05/30 04:03:27;;;;;;;2.63;2.43;;;;;;;9.58;82.30;95849.31;5053379;28;20520;-50
2022/05/30 04:05:54;;;;;;;3.00;2.50;;;;;;;9.61;80.77;95851.63;5055446;28;20199;-50
2022/05/30 04:08:21;;;;;;;3.03;2.30;;;;;;;9.60;81.61;95848.16;5055493;28;20202;-49
2022/05/30 04:10:47;;;;;;;2.80;2.60;;;;;;;9.55;82.56;95846.97;5054974;28;20211;-49
2022/05/30 04:13:14;;;;;;;2.67;2.47;;;;;;;9.73;82.24;95850.38;5055617;28;20206;-50
2022/05/30 04:15:42;;;;;;;2.70;2.50;;;;;;;9.92;81.17;95844.84;5055617;28;20218;-51
2022/05/30 04:18:11;;;;;;;2.80;2.60;;;;;;;10.04;80.67;95851.50;5055338;28;20572;-50
2022/05/30 04:20:41;;;;;;;3.10;2.80;;;;;;;10.12;79.74;95845.44;5055211;28;20305;-50
2022/05/30 04:23:08;;;;;;;2.73;2.50;;;;;;;10.12;78.81;95851.56;5049904;28;20211;-49
2022/05/30 04:25:34;;;;;;;2.50;2.30;;;;;;;10.16;79.32;95858.22;5053724;28;20544;-49
2022/05/30 04:28:01;;;;;;;2.70;2.50;;;;;;;10.23;78.53;95856.59;5055248;28;20202;-50
2022/05/30 04:30:28;;;;;;;2.70;2.50;;;;;;;10.46;77.21;95867.38;5054295;28;20242;-50
2022/05/30 04:32:54;;;;;;;2.90;2.50;;;;;;;10.65;75.40;95861.81;5054350;28;20206;-50
2022/05/30 04:35:21;;;;;;;2.77;2.57;;;;;;;10.70;76.06;95870.06;5053927;28;20204;-49
2022/05/30 04:37:51;;;;;;;2.60;2.40;;;;;;;10.84;75.43;95866.00;5054144;28;20230;-50
2022/05/30 04:40:19;;;;;;;2.73;2.30;;;;;;;10.98;74.12;95862.69;5054977;28;20208;-51
2022/05/30 04:42:48;;;;;;;3.57;2.47;;;;;;;11.25;72.21;95864.16;5058604;28;20203;-50
2022/05/30 04:45:15;;;;;;;3.40;2.63;;;;;;;11.37;71.34;95876.09;5057073;28;20226;-49
2022/05/30 04:47:42;;;;;;;2.63;2.23;;;;;;;11.39;73.20;95868.78;5054425;28;20199;-50
2022/05/30 04:50:13;;;;;;;2.40;2.20;;;;;;;11.62;70.65;95863.66;5053935;28;20250;-50
2022/05/30 04:52:40;;;;;;;3.50;2.20;;;;;;;11.81;69.17;95869.41;5053309;28;20275;-50
2022/05/30 04:55:09;;;;;;;2.30;2.10;;;;;;;11.71;69.04;95871.44;5053550;28;20203;-50
2022/05/30 04:57:40;;;;;;;2.93;2.33;;;;;;;11.59;69.64;95877.19;5053871;28;20223;-50
2022/05/30 05:00:08;;;;;;;2.30;2.20;;;;;;;11.56;69.82;95874.88;5047579;28;20204;-51
2022/05/30 05:02:35;;;;;;;3.50;2.43;;;;;;;11.45;71.19;95868.94;5050635;28;20573;-50
2022/05/30 05:05:01;;;;;;;2.47;2.23;;;;;;;11.55;70.46;95875.91;5053321;28;20643;-51
2022/05/30 05:07:28;;;;;;;2.60;2.20;;;;;;;11.64;70.78;95878.38;5053862;28;20214;-50
2022/05/30 05:09:57;;;;;;;2.70;2.50;;;;;;;11.72;70.09;95880.22;5053199;28;20207;-50
2022/05/30 05:12:27;;;;;;;2.50;2.30;;;;;;;11.98;68.93;95875.50;5053925;28;20217;-50
2022/05/30 05:14:53;;;;;;;5.37;2.60;;;;;;;12.15;70.29;95884.25;5041358;28;20246;-49
2022/05/30 05:17:22;;;;;;;3.43;2.67;;;;;;;12.34;66.92;95874.03;5054206;28;20241;-51
2022/05/30 05:19:48;;;;;;;3.00;2.80;;;;;;;12.55;65.83;95884.03;5053735;28;20226;-50
2022/05/30 05:22:16;;;;;;;3.97;2.50;;;;;;;12.48;67.72;95888.38;5054078;28;20548;-50
2022/05/30 05:24:44;;;;;;;2.50;2.33;;;;;;;12.63;65.58;95886.66;5053739;28;20213;-51
2022/05/30 05:27:10;;;;;;;2.57;2.37;;;;;;;13.06;65.55;95887.91;5053691;28;20226;-50
2022/05/30 05:29:38;;;;;;;2.43;2.23;;;;;;;13.02;64.75;95893.72;5017721;28;1051539;-49
2022/05/30 05:32:07;;;;;;;3.30;2.60;;;;;;;13.15;64.46;95896.63;5054321;28;20226;-49
2022/05/30 05:34:33;;;;;;;2.20;2.10;;;;;;;13.30;63.82;95894.88;5054050;28;20199;-50
2022/05/30 05:37:00;;;;;;;2.97;2.20;;;;;;;13.58;64.95;95895.97;5054410;28;20207;-51
2022/05/30 05:39:27;;;;;;;2.47;2.27;;;;;;;13.87;62.84;95895.19;5052918;28;20655;-50
2022/05/30 05:41:54;;;;;;;4.83;2.60;;;;;;;14.10;61.52;95895.94;5054066;28;20647;-51
2022/05/30 05:44:22;;;;;;;2.67;2.17;;;;;;;14.22;60.29;95901.63;5054580;28;20203;-50
2022/05/30 05:46:50;;;;;;;3.83;2.50;;;;;;;14.23;61.02;95900.63;5055118;28;20211;-50
2022/05/30 05:49:16;;;;;;;4.63;2.50;;;;;;;14.45;61.19;95897.09;5053756;28;20191;-51
2022/05/30 05:51:43;;;;;;;3.03;2.70;;;;;;;14.52;60.52;95902.50;5054595;28;20211;-50
2022/05/30 05:54:12;;;;;;;3.40;2.30;;;;;;;14.71;58.84;95908.03;5053719;28;20195;-50
2022/05/30 05:56:39;;;;;;;2.50;2.30;;;;;;;14.73;59.00;95906.03;5053677;28;20264;-50
2022/05/30 05:59:06;;;;;;;2.93;2.43;;;;;;;14.93;60.35;95896.44;5048863;28;20223;-50
2022/05/30 06:01:34;;;;;;;4.50;2.40;;;;;;;15.19;58.99;95906.56;5051782;28;20203;-50
2022/05/30 06:04:06;;;;;;;2.40;2.30;;;;;;;15.45;56.41;95912.13;5054013;28;20508;-52
2022/05/30 06:06:32;;;;;;;2.50;2.30;;;;;;;15.68;56.57;95917.28;5054424;28;20195;-52
2022/05/30 06:09:01;;;;;;;2.33;2.13;;;;;;;16.00;55.77;95904.41;5048348;28;20543;-49
2022/05/30 06:11:28;;;;;;;2.43;2.23;;;;;;;15.99;54.34;95913.41;5048235;28;20199;-50
2022/05/30 06:13:55;;;;;;;3.07;2.87;;;;;;;16.01;53.91;95906.91;5048856;28;20620;-50
2022/05/30 06:16:23;;;;;;;2.75;2.53;;;;;;;15.67;55.76;95918.31;5048654;28;20219;-50
2022/05/30 06:18:51;;;;;;;3.67;2.72;;;;;;;15.79;57.45;95915.94;5052781;28;20317;-50
2022/05/30 06:21:19;;;;;;;3.67;2.40;;;;;;;16.08;56.27;95914.94;5045424;28;20204;-51
2022/05/30 06:23:46;;;;;;;2.85;2.63;;;;;;;16.16;55.71;95912.09;5057203;28;20207;-51
2022/05/30 06:26:13;;;;;;;2.92;2.45;;;;;;;16.45;54.54;95906.53;5057373;28;20207;-49
2022/05/30 06:28:41;;;;;;;2.10;1.90;;;;;;;16.85;53.75;95912.94;5056850;28;20242;-50
2022/05/30 06:31:09;;;;;;;6.20;2.67;;;;;;;16.47;53.06;95923.19;5057399;28;20210;-49
2022/05/30 06:33:36;;;;;;;3.38;2.17;;;;;;;16.84;52.20;95919.28;5057365;28;20218;-49
2022/05/30 06:36:04;;;;;;;5.45;3.25;;;;;;;16.80;53.50;95916.19;5056531;28;20211;-49
2022/05/30 06:38:32;;;;;;;2.55;2.20;;;;;;;16.65;51.06;95920.84;5057321;28;20242;-50
2022/05/30 06:41:09;;;;;;;3.40;2.65;;;;;;;17.08;51.19;95924.09;5057346;28;20203;-49
2022/05/30 06:43:36;;;;;;;6.97;3.88;;;;;;;17.18;51.74;95923.72;5056953;28;20257;-51
2022/05/30 06:46:03;;;;;;;3.58;3.00;;;;;;;17.61;52.43;95922.38;5055107;28;20529;-50
2022/05/30 06:48:29;;;;;;;6.10;2.55;;;;;;;17.81;48.66;95928.59;5056814;28;20528;-50
2022/05/30 06:50:56;;;;;;;4.82;2.60;;;;;;;18.00;48.35;95931.44;5057259;28;20207;-52
2022/05/30 06:53:22;;;;;;;3.55;2.40;;;;;;;17.80;50.57;95928.78;5050278;28;20222;-50
2022/05/30 06:55:51;;;;;;;3.22;2.47;;;;;;;17.94;49.22;95926.94;5056732;28;20206;-51
2022/05/30 06:58:18;;;;;;;2.65;2.10;;;;;;;18.05;49.53;95935.16;5060635;28;20230;-50
2022/05/30 07:00:46;;;;;;;3.95;2.80;;;;;;;18.13;49.12;95928.78;5056706;28;20215;-51
2022/05/30 07:03:13;;;;;;;3.33;2.30;;;;;;;18.27;49.93;95938.47;5066774;28;20207;-50
2022/05/30 07:05:39;;;;;;;4.03;2.28;;;;;;;18.25;47.27;95925.28;5072053;28;20215;-51
2022/05/30 07:08:07;;;;;;;2.60;2.17;;;;;;;18.23;49.94;95931.88;5071784;28;20233;-52
2022/05/30 07:10:35;;;;;;;3.80;2.13;;;;;;;18.56;48.70;95934.53;5062021;28;20199;-51
2022/05/30 07:13:05;;;;;;;2.83;2.30;;;;;;;18.51;49.08;95926.28;5056598;28;20207;-50
2022/05/30 07:15:36;;;;;;;2.38;2.15;;;;;;;18.72;48.09;95936.75;5056898;28;20203;-51
2022/05/30 07:18:08;;;;;;;2.80;1.83;;;;;;;18.87;45.18;95937.31;5057082;28;20300;-50
2022/05/30 07:20:35;;;;;;;5.25;2.08;;;;;;;19.06;45.28;95943.63;5057513;28;20191;-51
2022/05/30 07:23:02;;;;;;;2.28;2.08;;;;;;;19.20;45.41;95946.03;5056574;28;20551;-50
2022/05/30 07:25:30;;;;;;;2.05;1.95;;;;;;;18.95;44.09;95952.34;5056481;28;20195;-50
2022/05/30 07:27:57;;;;;;;2.28;2.00;;;;;;;18.95;44.92;95946.97;5056630;28;20530;-50
2022/05/30 07:30:25;;;;;;;2.17;1.58;;;;;;;19.34;46.65;95936.09;5055638;28;20242;-51
2022/05/30 07:32:52;;;;;;;3.63;1.98;;;;;;;19.67;45.10;95939.41;5049094;28;20191;-51
2022/05/30 07:35:19;;;;;;;2.67;2.30;;;;;;;19.66;43.45;95945.78;5053141;28;20234;-51
2022/05/30 07:37:45;;;;;;;4.07;2.05;;;;;;;19.81;42.63;95938.28;5055788;28;20273;-51
2022/05/30 07:40:13;;;;;;;3.53;2.13;;;;;;;20.12;44.57;95947.34;5056561;28;20207;-51
2022/05/30 07:42:40;;;;;;;1.85;1.75;;;;;;;20.07;43.42;95942.63;5055960;28;20203;-51
2022/05/30 07:45:08;;;;;;;1.70;1.60;;;;;;;19.88;42.01;95944.41;5056146;28;20199;-50
2022/05/30 07:47:36;;;;;;;2.42;1.80;;;;;;;20.16;42.84;95943.16;5055839;28;20214;-51
2022/05/30 07:50:06;;;;;;;4.00;1.90;;;;;;;20.27;39.77;95947.81;5056383;28;20207;-50
2022/05/30 07:52:33;;;;;;;2.47;1.80;;;;;;;20.23;39.07;95941.22;5056208;28;20218;-52
2022/05/30 07:55:02;;;;;;;4.50;2.10;;;;;;;20.48;39.83;95946.59;5055951;28;20203;-51
2022/05/30 08:00:11;;;;;;;2.58;1.65;;;;;;;20.47;39.67;95947.69;5055340;28;20227;-51
2022/05/30 08:02:42;;;;;;;1.60;1.50;;;;;;;20.07;39.38;95957.91;5055567;28;20257;-52
2022/05/30 08:05:11;;;;;;;1.88;1.75;;;;;;;20.46;40.22;95962.97;5042666;28;21605;-50
2022/05/30 08:07:38;;;;;;;3.90;1.63;;;;;;;20.38;38.41;95960.56;5055733;28;20215;-50
2022/05/30 08:10:06;;;;;;;4.85;2.08;;;;;;;20.49;39.05;95957.16;5055988;28;20194;-50
2022/05/30 08:12:33;;;;;;;2.47;2.08;;;;;;;20.45;39.99;95966.69;5055149;28;20601;-51
2022/05/30 08:14:59;;;;;;;2.22;2.03;;;;;;;20.58;39.89;95963.88;5055613;28;20207;-49
2022/05/30 08:17:29;;;;;;;2.03;1.80;;;;;;;20.58;39.48;95955.81;5055315;28;20545;-52
2022/05/30 08:20:01;;;;;;;3.45;2.42;;;;;;;20.42;38.36;95956.38;5055403;28;20250;-49
2022/05/30 08:22:28;;;;;;;2.42;1.85;;;;;;;20.55;39.54;95952.75;5055342;28;20225;-50
2022/05/30 08:24:55;;;;;;;2.58;1.58;;;;;;;20.60;39.86;95951.06;5055136;28;20546;-50
2022/05/30 08:27:22;;;;;;;3.15;1.90;;;;;;;20.49;38.35;95942.91;5054868;28;20294;-50
2022/05/30 08:29:49;;;;;;;2.00;1.73;;;;;;;20.68;39.40;95958.00;5044591;28;20259;-50
2022/05/30 08:32:19;;;;;;;1.58;1.48;;;;;;;20.59;36.80;95957.47;5052413;28;20207;-49
2022/05/30 08:34:45;;;;;;;1.73;1.63;;;;;;;20.58;37.02;95957.69;5054989;28;20202;-49
2022/05/30 08:37:13;;;;;;;5.00;1.85;;;;;;;20.38;36.77;95962.41;5055113;28;20232;-50
2022/05/30 08:42:31;;;;;;;2.13;1.67;;;;;;;20.55;38.00;95956.25;5042018;28;20214;-50
2022/05/30 08:44:58;;;;;;;4.70;2.13;;;;;;;20.90;39.98;95961.09;5054802;28;20211;-51
2022/05/30 08:47:42;;;;;;;1.50;1.40;;;;;;;20.87;36.65;95965.00;5055465;28;20207;-51
2022/05/30 08:50:13;;;;;;;2.33;1.75;;;;;;;20.94;37.89;95964.97;5054697;28;20201;-50
2022/05/30 08:52:50;;;;;;;3.08;1.48;;;;;;;21.17;37.07;95959.75;5054819;28;20286;-50
2022/05/30 08:55:22;;;;;;;1.63;1.40;;;;;;;21.61;36.35;95963.94;5056579;28;20198;-50
2022/05/30 08:57:57;;;;;;;1.80;1.48;;;;;;;20.89;36.41;95964.81;5070928;28;20206;-50
2022/05/30 09:00:26;;;;;;;2.35;1.70;;;;;;;21.42;35.99;95963.16;5056542;28;20233;-51
2022/05/30 09:03:01;;;;;;;2.30;1.55;;;;;;;21.46;34.09;95969.72;5055062;28;20214;-52
2022/05/30 09:05:31;;;;;;;4.40;1.50;;;;;;;21.40;34.45;95967.13;5055292;28;20542;-51
2022/05/30 09:08:05;;;;;;;2.55;1.58;;;;;;;21.57;35.14;95962.75;5054694;28;20230;-51
2022/05/30 09:10:38;;;;;;;1.55;1.45;;;;;;;21.16;37.75;95961.63;5061853;28;20207;-50
2022/05/30 09:13:07;;;;;;;3.70;1.60;;;;;;;21.28;38.24;95964.38;5054397;28;20225;-52
2022/05/30 09:15:36;;;;;;;2.28;2.03;;;;;;;21.62;34.62;95961.00;5053442;28;20207;-51
2022/05/30 09:18:07;;;;;;;1.73;1.63;;;;;;;21.48;34.54;95964.09;5053763;28;20558;-50
2022/05/30 09:20:37;;;;;;;3.30;1.73;;;;;;;21.34;34.67;95971.53;5054550;28;20604;-52
2022/05/30 09:23:07;;;;;;;2.03;1.60;;;;;;;21.38;35.44;95967.34;5056420;28;20214;-52
2022/05/30 09:28:20;;;;;;;2.78;1.98;;;;;;;21.38;35.26;95967.34;5061960;28;20302;-51
2022/05/30 09:30:53;;;;;;;1.73;1.30;;;;;;;22.13;34.26;95965.06;5058525;28;20203;-54
2022/05/30 09:33:28;;;;;;;4.07;1.60;;;;;;;21.99;34.97;95967.13;5061278;28;20203;-52
2022/05/30 09:36:11;;;;;;;3.00;1.20;;;;;;;21.84;35.68;95954.06;5047734;28;20241;-52
2022/05/30 09:38:42;;;;;;;1.40;1.30;;;;;;;22.29;35.19;95959.81;5048163;28;20216;-54
2022/05/30 09:41:14;;;;;;;1.75;1.25;;;;;;;22.05;33.25;95963.53;5060391;28;20519;-51
2022/05/30 09:43:43;;;;;;;2.42;1.60;;;;;;;21.62;33.50;95961.00;5059580;28;20252;-52
2022/05/30 09:46:17;;;;;;;1.27;1.17;;;;;;;21.55;31.85;95962.97;5060326;28;20214;-50
2022/05/30 09:49:01;;;;;;;2.22;1.70;;;;;;;21.90;33.49;95964.94;5054106;28;20203;-52
2022/05/30 09:51:34;;;;;;;2.03;1.48;;;;;;;21.77;31.93;95961.44;5044760;28;20187;-50
2022/05/30 09:54:03;;;;;;;1.23;1.17;;;;;;;22.10;32.19;95965.53;5057650;28;20203;-52
2022/05/30 09:56:30;;;;;;;1.92;1.20;;;;;;;22.31;31.23;95973.06;5058050;28;20195;-51
2022/05/30 09:59:04;;;;;;;1.30;1.20;;;;;;;22.09;31.73;95964.69;5060458;28;20222;-51
2022/05/30 10:01:32;;;;;;;2.28;1.25;;;;;;;22.18;32.00;95965.16;5058070;28;20203;-51
2022/05/30 10:04:15;;;;;;;1.33;1.23;;;;;;;22.32;31.58;95970.09;5057134;28;20647;-50
2022/05/30 10:06:42;;;;;;;2.85;1.30;;;;;;;22.55;33.69;95969.31;5057603;28;20540;-52
2022/05/30 10:09:11;;;;;;;1.00;0.93;;;;;;;22.63;31.66;95971.69;5058043;28;20533;-50
2022/05/30 10:11:38;;;;;;;1.90;1.08;;;;;;;22.68;32.51;95960.19;5057988;28;20207;-51
2022/05/30 10:14:18;;;;;;;2.33;1.00;;;;;;;22.80;33.04;95969.94;5057565;28;20211;-51
2022/05/30 10:16:45;;;;;;;3.05;1.10;;;;;;;22.96;31.43;95963.00;5061624;28;20211;-51
2022/05/30 10:19:24;;;;;;;1.40;1.10;;;;;;;22.87;31.36;95969.00;5065843;28;20238;-50
2022/05/30 10:30:32;;;;;;;3.60;1.38;;;;;;;22.89;33.75;95969.56;5057035;28;20300;-50
2022/05/30 10:33:07;;;;;;;0.80;0.80;;;;;;;22.90;32.00;95974.72;5057585;28;20198;-51
2022/05/30 10:35:39;;;;;;;1.35;1.13;;;;;;;22.48;30.30;95982.09;5050899;28;20214;-52
2022/05/30 10:38:14;;;;;;;3.67;1.58;;;;;;;22.26;31.52;95987.22;5047640;28;20646;-51
2022/05/30 10:41:01;;;;;;;2.03;1.10;;;;;;;22.65;33.30;95983.03;5056860;28;20644;-52
2022/05/30 10:43:39;;;;;;;2.03;1.38;;;;;;;22.57;29.80;95987.94;5057053;28;20583;-51
2022/05/30 10:46:10;;;;;;;2.00;1.27;;;;;;;22.80;30.47;95987.97;5057474;28;20222;-53
2022/05/30 10:48:40;;;;;;;1.42;1.05;;;;;;;22.67;29.40;95983.63;5052776;28;20235;-52
2022/05/30 10:51:09;;;;;;;1.75;0.90;;;;;;;22.57;29.97;95987.94;5048702;28;20555;-51
2022/05/30 10:53:46;;;;;;;1.55;1.10;;;;;;;22.22;29.39;95985.19;5056983;28;20207;-53
2022/05/30 10:56:18;;;;;;;2.05;1.10;;;;;;;22.17;29.41;95988.63;5057161;28;20214;-51
2022/05/30 10:58:49;;;;;;;1.05;1.05;;;;;;;22.36;32.32;95981.25;5056632;28;20608;-51
2022/05/30 11:01:43;;;;;;;1.20;1.10;;;;;;;21.86;30.16;95975.34;5056579;28;20639;-52
2022/05/30 11:04:36;;;;;;;1.77;1.10;;;;;;;22.17;29.88;95987.78;5056639;28;20200;-52
2022/05/30 11:07:11;;;;;;;3.05;1.10;;;;;;;22.50;33.99;95985.34;5056840;28;20234;-52
2022/05/30 11:09:41;;;;;;;1.33;1.20;;;;;;;22.48;32.45;95986.66;5056640;28;20206;-52
2022/05/30 11:12:16;;;;;;;0.90;0.90;;;;;;;23.04;31.66;95981.50;5057279;28;20260;-51
2022/05/30 11:14:46;;;;;;;1.55;0.90;;;;;;;22.95;30.59;95984.81;5055237;28;20198;-52
2022/05/30 11:17:16;;;;;;;2.90;1.00;;;;;;;22.99;32.10;95992.16;5056287;28;20215;-51
2022/05/30 11:19:52;;;;;;;2.35;1.30;;;;;;;23.32;30.91;95986.13;5055245;28;20223;-54
2022/05/30 11:22:24;;;;;;;3.67;1.20;;;;;;;22.89;29.85;95993.81;5056373;28;20203;-52
2022/05/30 11:24:53;;;;;;;2.72;1.40;;;;;;;22.61;29.26;95989.94;5056554;28;20203;-52
2022/05/30 11:27:35;;;;;;;1.55;1.05;;;;;;;22.36;29.27;95996.59;5055979;28;20206;-52
2022/05/30 11:30:17;;;;;;;1.15;1.05;;;;;;;22.17;28.68;95990.47;5053662;28;20223;-51
2022/05/30 11:32:55;;;;;;;1.30;1.20;;;;;;;22.64;31.96;95994.84;5055332;28;20247;-53
2022/05/30 11:35:31;;;;;;;1.40;1.27;;;;;;;22.05;30.37;95995.81;5056458;28;20207;-53
2022/05/30 11:38:10;;;;;;;2.25;1.55;;;;;;;22.22;31.06;96002.19;5055674;28;20682;-51
2022/05/30 11:40:43;;;;;;;3.63;1.30;;;;;;;22.66;32.53;95987.38;5056152;28;20235;-53
2022/05/30 11:43:22;;;;;;;2.35;1.23;;;;;;;22.83;30.95;95982.13;5067663;28;20206;-53
2022/05/30 11:45:54;;;;;;;2.13;0.95;;;;;;;22.78;31.47;95996.28;5068020;28;20199;-53
2022/05/30 11:48:27;;;;;;;2.05;1.13;;;;;;;22.31;29.47;95990.03;5061539;28;20544;-50
2022/05/30 11:51:00;;;;;;;1.48;1.23;;;;;;;22.67;31.01;95991.72;5071876;28;20206;-52
2022/05/30 11:54:05;;;;;;;1.15;1.00;;;;;;;22.97;28.13;95993.47;5071773;28;20199;-52
2022/05/30 11:56:39;;;;;;;2.95;1.48;;;;;;;22.92;31.00;95991.47;5055951;28;20222;-52
2022/05/30 11:59:38;;;;;;;2.95;1.23;;;;;;;22.78;30.30;95990.06;5056998;28;20234;-50
2022/05/30 12:02:10;;;;;;;1.80;1.30;;;;;;;22.74;28.59;95991.63;5045193;28;20203;-53
2022/05/30 12:05:05;;;;;;;8.68;1.85;;;;;;;22.93;28.86;95986.91;5056132;28;20531;-52
2022/05/30 12:07:58;;;;;;;6.00;1.63;;;;;;;22.91;28.45;95989.03;5055406;28;20655;-53